Wake Island Airfield, Wake Island

4:54 AM WAKT on January 29, 2015 (GMT +1200)
Wake Island Army Air Field | Change Station
CLOSE
Current Station
Airport
Location: Wake Island, Wake Island Army,
Elevation: 13 ft
Nearby Weather Stations

Elev 13 ft 19.28 °N, 166.64 °E | Updated 8 minutes ago

Light Rain
Light Rain Mist
73 °F
Feels Like 73 °F
N
25
Wind Variable Wind from East
Gusts 32 mph

Today
High -- | Low -- °F
--% Chance of Precip.
Yesterday
High -- | Low -- °F
Precip. -- in
7:28 AM 6:44 PM
Waxing Gibbous, 66% visible
Pressure 29.96 in
Visibility 5.0 miles
Clouds Scattered Clouds 600 ft
Mostly Cloudy 1400 ft
Overcast 3200 ft
Dew Point 72 °F
Humidity 94%
Rainfall 0.06 in
Snow Depth Not available.
UV 0 out of 12
Pollen Not available.
Air Quality Not available.
Flu Activity Not available.
SPECI PWAK 281646Z AUTO 08022G28KT 8000 -RA BR SCT006 BKN014 OVC032 23/22 A2996 RMK AO2 RAB1632

More Conditions Fewer Conditions

Pressure 29.96 in
Visibility 5.0 miles
Clouds Scattered Clouds 600 ft
Mostly Cloudy 1400 ft
Overcast 3200 ft
Dew Point 72 °F
Humidity 94%
Rainfall 0.06 in
Snow Depth Not available.
UV 0 out of 12
Pollen Not available.
Air Quality Not available.
Flu Activity Not available.
SPECI PWAK 281646Z AUTO 08022G28KT 8000 -RA BR SCT006 BKN014 OVC032 23/22 A2996 RMK AO2 RAB1632

More Conditions Fewer Conditions

10-Day Weather Forecast

Almanac

Astronomy

Jan. 29, 2015 Rise Set
Actual Time
Civil Twilight
Nautical Twilight
Astronomical Twilight
Moon
Length of Visible Light
Length of Day
Tomorrow will be .
, % of the Moon is Illuminated

Today's Extremes

Country Highs Country Lows

Community

WunderPhotos

Upload Photos

1,791,197 photos uploaded!

WunderBlogs® & News

Nearby

Air Quality

  Air Quality AQ Index Pollutant
Not available.

Snow Depth

Station Depth Elevation

Earthquake Activity

City Distance Mag. Time & Date
Minimum magnitude displayed is 2.5.

Coastal Water Temperatures

Place Temperature

Nearby Weather Stations